createdAt,value
2019-05-17T00:01:08.412Z,36.90
2019-05-17T00:06:06.690Z,32.50
2019-05-17T00:11:06.706Z,36.90
2019-05-17T00:16:07.225Z,41.20
2019-05-17T00:21:07.544Z,34.00
2019-05-17T00:26:07.145Z,37.10
2019-05-17T00:31:06.627Z,39.40
2019-05-17T00:36:07.030Z,40.40
2019-05-17T00:41:07.102Z,41.30
2019-05-17T00:46:06.671Z,43.60
2019-05-17T00:51:09.256Z,43.20
2019-05-17T00:56:06.629Z,44.80
2019-05-17T01:01:07.914Z,43.40
2019-05-17T01:06:06.337Z,43.30
2019-05-17T01:11:06.945Z,43.30
2019-05-17T01:16:07.140Z,36.40
2019-05-17T01:21:06.395Z,43.10
2019-05-17T01:26:09.169Z,43.00
2019-05-17T01:31:06.736Z,42.80
2019-05-17T01:36:06.822Z,44.80
2019-05-17T01:41:06.842Z,44.80
2019-05-17T01:46:06.599Z,44.40
2019-05-17T01:51:04.570Z,44.30
2019-05-17T01:56:06.353Z,43.80
2019-05-17T02:01:04.455Z,44.60
2019-05-17T02:06:07.228Z,42.90
2019-05-17T02:11:06.660Z,41.40
2019-05-17T02:16:04.352Z,40.60
2019-05-17T02:21:06.412Z,41.80
2019-05-17T02:26:06.456Z,41.90
2019-05-17T02:31:04.259Z,44.50
2019-05-17T02:36:04.094Z,42.30
2019-05-17T02:41:04.034Z,44.80
2019-05-17T02:46:04.322Z,43.60
2019-05-17T02:51:04.089Z,41.20
2019-05-17T02:56:03.869Z,44.30
2019-05-17T03:01:04.224Z,44.90
2019-05-17T03:06:03.748Z,45.20
2019-05-17T03:11:03.792Z,44.00
2019-05-17T03:16:03.975Z,46.50
2019-05-17T03:21:04.249Z,41.00
2019-05-17T03:26:04.004Z,33.80
2019-05-17T03:31:07.931Z,33.20
2019-05-17T03:36:06.049Z,33.10
2019-05-17T03:41:17.067Z,33.70
2019-05-17T03:46:04.293Z,38.40
2019-05-17T03:51:03.313Z,31.80
2019-05-17T03:56:03.295Z,37.70
2019-05-17T04:01:04.171Z,34.50
2019-05-17T04:06:03.876Z,28.70
2019-05-17T04:11:20.408Z,28.00
2019-05-17T04:16:08.733Z,23.80
2019-05-17T04:21:03.956Z,19.50
2019-05-17T04:26:04.184Z,21.50
2019-05-17T04:31:03.120Z,19.30
2019-05-17T04:36:03.027Z,17.70
2019-05-17T04:41:03.532Z,11.50
2019-05-17T04:46:03.112Z,9.50
2019-05-17T04:51:03.037Z,9.90
2019-05-17T04:56:03.225Z,10.80
2019-05-17T05:01:03.910Z,11.20
2019-05-17T05:06:03.163Z,10.80
2019-05-17T05:11:03.931Z,7.60
2019-05-17T05:16:03.153Z,9.90
2019-05-17T05:21:03.675Z,10.20
2019-05-17T05:26:03.151Z,10.70
2019-05-17T05:31:02.270Z,10.60
2019-05-17T05:36:02.460Z,13.40
2019-05-17T05:41:02.183Z,14.10
2019-05-17T05:46:03.253Z,14.00
2019-05-17T05:51:04.390Z,12.50
2019-05-17T05:56:03.240Z,11.00
2019-05-17T06:01:02.566Z,8.70
2019-05-17T06:06:02.115Z,8.60
2019-05-17T06:11:02.361Z,8.80
2019-05-17T06:16:02.624Z,9.20
2019-05-17T06:21:03.101Z,8.30
2019-05-17T06:26:03.957Z,8.20
2019-05-17T06:31:02.934Z,7.70
2019-05-17T06:36:02.831Z,8.50
2019-05-17T06:41:01.710Z,8.80
2019-05-17T06:46:01.912Z,8.50
2019-05-17T06:51:02.661Z,8.40
2019-05-17T06:56:02.641Z,7.50
2019-05-17T07:01:01.636Z,6.80
2019-05-17T07:06:02.287Z,8.60
2019-05-17T07:11:01.339Z,7.60
2019-05-17T07:16:01.236Z,7.70
2019-05-17T07:21:03.562Z,7.80
2019-05-17T07:26:01.134Z,7.20
2019-05-17T07:31:01.138Z,6.40
2019-05-17T07:36:03.348Z,6.80
2019-05-17T07:41:00.946Z,6.70
2019-05-17T07:46:01.337Z,6.30
2019-05-17T07:51:00.884Z,5.70
2019-05-17T07:56:00.762Z,5.60
2019-05-17T08:01:02.232Z,6.20
2019-05-17T08:06:02.934Z,4.90
2019-05-17T08:11:00.664Z,5.30
2019-05-17T08:16:00.988Z,5.20
2019-05-17T08:21:00.527Z,4.60
2019-05-17T08:26:00.839Z,5.00
2019-05-17T08:31:01.501Z,4.90
2019-05-17T08:36:00.543Z,4.20
2019-05-17T08:41:00.771Z,4.80
2019-05-17T08:46:02.079Z,5.80
2019-05-17T08:51:00.374Z,4.80
2019-05-17T08:56:00.919Z,5.10
2019-05-17T09:01:00.390Z,4.70
2019-05-17T09:06:02.270Z,4.50
2019-05-17T09:11:00.514Z,4.80
2019-05-17T09:16:00.562Z,4.10
2019-05-17T09:21:00.507Z,5.80
2019-05-17T09:25:59.858Z,4.20
2019-05-17T09:31:00.045Z,3.50
2019-05-17T09:36:00.859Z,3.40
2019-05-17T09:41:00.053Z,3.50
2019-05-17T09:46:01.558Z,3.80
2019-05-17T09:51:00.099Z,3.70
2019-05-17T09:56:00.482Z,3.10
2019-05-17T10:01:01.347Z,2.60
2019-05-17T10:06:09.660Z,2.30
2019-05-17T10:11:09.640Z,3.20
2019-05-17T10:16:00.437Z,2.70
2019-05-17T10:20:59.828Z,2.00
2019-05-17T10:25:59.643Z,2.30
2019-05-17T10:31:02.326Z,3.40
2019-05-17T10:36:00.559Z,2.80
2019-05-17T10:40:59.036Z,3.90
2019-05-17T10:45:59.772Z,1.90
2019-05-17T10:51:00.352Z,1.80
2019-05-17T10:56:00.699Z,1.60
2019-05-17T11:01:00.832Z,1.60
2019-05-17T11:05:59.759Z,1.30
2019-05-17T11:10:59.653Z,1.60
2019-05-17T11:15:58.667Z,2.10
2019-05-17T11:20:58.660Z,1.70
2019-05-17T11:25:58.581Z,2.00
2019-05-17T11:30:58.515Z,6.10
2019-05-17T11:35:58.474Z,14.00
2019-05-17T11:40:58.415Z,8.60
2019-05-17T11:45:58.476Z,2.20
2019-05-17T11:50:58.452Z,2.30
2019-05-17T11:55:58.342Z,2.90
2019-05-17T12:00:58.317Z,3.00
2019-05-17T12:05:58.244Z,3.30
2019-05-17T12:10:58.380Z,3.90
2019-05-17T12:15:58.171Z,2.60
2019-05-17T12:20:58.116Z,2.80
2019-05-17T12:25:58.066Z,2.90
2019-05-17T12:30:58.154Z,2.60
2019-05-17T12:35:58.024Z,2.90
2019-05-17T12:40:57.961Z,3.30
2019-05-17T12:46:01.134Z,5.30
2019-05-17T12:50:57.774Z,3.30
2019-05-17T12:55:57.734Z,3.50
2019-05-17T13:00:57.690Z,4.00
2019-05-17T13:05:57.654Z,3.90
2019-05-17T13:10:57.563Z,4.00
2019-05-17T13:15:57.585Z,4.70
2019-05-17T13:20:57.497Z,4.80
2019-05-17T13:25:57.394Z,5.00
2019-05-17T13:30:57.460Z,5.10
2019-05-17T13:35:57.324Z,5.50
2019-05-17T13:40:57.283Z,5.50
2019-05-17T13:45:57.231Z,7.60
2019-05-17T13:50:57.165Z,8.10
2019-05-17T13:55:57.413Z,8.50
2019-05-17T14:00:57.052Z,8.30
2019-05-17T14:05:57.144Z,9.60
2019-05-17T14:10:57.095Z,9.70
2019-05-17T14:15:57.014Z,10.30
2019-05-17T14:20:57.034Z,9.90
2019-05-17T14:25:56.977Z,10.20
2019-05-17T14:30:56.919Z,10.50
2019-05-17T14:35:56.842Z,9.80
2019-05-17T14:41:07.397Z,10.80
2019-05-17T14:45:57.900Z,10.30
2019-05-17T14:50:56.705Z,10.20
2019-05-17T14:55:56.670Z,10.90
2019-05-17T15:00:56.824Z,10.50
2019-05-17T15:05:56.500Z,11.30
2019-05-17T15:10:56.413Z,11.40
2019-05-17T15:15:56.433Z,12.90
2019-05-17T15:20:56.300Z,13.10
2019-05-17T15:25:56.281Z,12.20
2019-05-17T15:30:56.211Z,18.10
2019-05-17T15:35:56.302Z,15.20
2019-05-17T15:40:56.232Z,15.90
2019-05-17T15:45:56.189Z,16.40
2019-05-17T15:50:56.131Z,16.70
2019-05-17T15:55:56.076Z,19.30
2019-05-17T16:00:56.048Z,18.60
2019-05-17T16:05:55.941Z,19.00
2019-05-17T16:10:55.941Z,21.10
2019-05-17T16:15:55.838Z,21.40
2019-05-17T16:20:55.825Z,21.50
2019-05-17T16:25:55.839Z,23.10
2019-05-17T16:30:55.773Z,23.20
2019-05-17T16:35:55.684Z,23.10
2019-05-17T16:40:55.644Z,23.10
2019-05-17T16:45:55.508Z,25.10
2019-05-17T16:50:55.509Z,22.70
2019-05-17T16:55:55.381Z,24.80
2019-05-17T17:00:55.344Z,24.40
2019-05-17T17:05:55.286Z,25.50
2019-05-17T17:10:55.226Z,26.40
2019-05-17T17:15:55.168Z,26.40
2019-05-17T17:20:55.217Z,26.40
2019-05-17T17:25:55.114Z,25.90
2019-05-17T17:30:55.059Z,26.00
2019-05-17T17:35:54.977Z,26.50
2019-05-17T17:40:55.844Z,27.00
2019-05-17T17:45:54.958Z,27.00
2019-05-17T17:50:54.804Z,28.20
2019-05-17T17:55:54.734Z,29.80
2019-05-17T18:00:54.697Z,29.50
2019-05-17T18:05:54.677Z,28.20
2019-05-17T18:10:54.587Z,28.80
2019-05-17T18:15:54.570Z,26.60
2019-05-17T18:20:54.542Z,29.00
2019-05-17T18:25:54.434Z,32.80
2019-05-17T18:30:54.398Z,29.20
2019-05-17T18:36:03.410Z,28.30
2019-05-17T18:40:54.298Z,35.30
2019-05-17T18:45:54.269Z,31.80
2019-05-17T18:50:54.176Z,33.50
2019-05-17T18:55:54.121Z,34.80
2019-05-17T19:00:54.080Z,35.10
2019-05-17T19:05:54.040Z,34.70
2019-05-17T19:10:53.958Z,35.40
2019-05-17T19:15:53.913Z,38.50
2019-05-17T19:20:53.870Z,41.10
2019-05-17T19:25:53.800Z,42.40
2019-05-17T19:30:53.771Z,40.90
2019-05-17T19:35:53.698Z,40.70
2019-05-17T19:40:53.688Z,41.70
2019-05-17T19:45:53.626Z,42.30
2019-05-17T19:50:53.526Z,40.40
2019-05-17T19:55:53.486Z,42.10
2019-05-17T20:00:53.519Z,43.00
2019-05-17T20:05:53.377Z,44.50
2019-05-17T20:10:53.323Z,45.10
2019-05-17T20:15:53.271Z,50.90
2019-05-17T20:20:53.221Z,86.60
2019-05-17T20:25:53.155Z,47.10
2019-05-17T20:30:53.111Z,47.00
2019-05-17T20:35:53.046Z,49.30
2019-05-17T20:40:52.991Z,48.40
2019-05-17T20:45:53.024Z,57.10
2019-05-17T20:50:52.955Z,49.60
2019-05-17T20:55:52.874Z,50.00
2019-05-17T21:00:52.810Z,48.20
2019-05-17T21:05:52.760Z,56.20
2019-05-17T21:10:52.659Z,45.20
2019-05-17T21:15:52.679Z,61.60
2019-05-17T21:20:52.551Z,74.80
2019-05-17T21:25:52.585Z,47.80
2019-05-17T21:30:52.489Z,59.20
2019-05-17T21:35:52.415Z,45.20
2019-05-17T21:40:52.418Z,61.40
2019-05-17T21:46:03.185Z,108.90
2019-05-17T21:50:53.229Z,76.70
2019-05-17T21:55:52.156Z,88.40
2019-05-17T22:00:52.107Z,85.80
2019-05-17T22:05:52.038Z,90.90
2019-05-17T22:10:51.986Z,102.80
2019-05-17T22:15:51.915Z,97.20
2019-05-17T22:20:51.891Z,88.40
2019-05-17T22:25:51.812Z,105.60
2019-05-17T22:30:51.771Z,115.20
2019-05-17T22:35:51.703Z,80.40
2019-05-17T22:40:51.645Z,84.70
2019-05-17T22:45:51.639Z,82.80
2019-05-17T22:50:51.542Z,91.90
2019-05-17T22:55:51.488Z,83.10
2019-05-17T23:00:51.447Z,99.80
2019-05-17T23:05:51.405Z,98.80
2019-05-17T23:10:51.313Z,63.00
2019-05-17T23:15:51.383Z,90.50
2019-05-17T23:20:51.280Z,88.90
2019-05-17T23:25:51.163Z,84.90
2019-05-17T23:30:51.148Z,101.50
2019-05-17T23:35:51.115Z,67.20
2019-05-17T23:40:51.036Z,57.20
2019-05-17T23:45:50.958Z,93.10
2019-05-17T23:50:50.860Z,98.60
2019-05-17T23:55:50.933Z,89.40
